Time;durP1;ratioP1;P1;durP2;ratioP2;P2;SDS_P1;SDS_P2;PMS_P1;PMS_P2;Temp;Humidity;BMP_temperature;BMP_pressure;BME280_temperature;BME280_humidity;BME280_pressure;Samples;Min_cycle;Max_cycle;Signal;HPM_P1;HPM_P2
2022/01/08 00:01:30;;;;;;;23.25;3.55;;;;;;;-145.67;100.00;66521.78;4996145;28;20048;-68
2022/01/08 00:03:55;;;;;;;21.35;3.17;;;;;;;-145.67;100.00;66521.78;4996191;28;20069;-68
2022/01/08 00:06:23;;;;;;;20.58;3.15;;;;;;;-145.67;100.00;66521.78;5003178;28;20030;-68
2022/01/08 00:08:49;;;;;;;18.48;3.38;;;;;;;-145.67;100.00;66521.78;5002104;28;20541;-68
2022/01/08 00:11:18;;;;;;;16.85;3.67;;;;;;;-145.67;100.00;66521.78;4995561;28;20040;-68
2022/01/08 00:13:44;;;;;;;17.98;3.30;;;;;;;-145.67;100.00;66521.78;4995794;28;20037;-69
2022/01/08 00:16:09;;;;;;;21.48;3.65;;;;;;;-145.67;100.00;66521.78;4990663;28;20335;-69
2022/01/08 00:18:35;;;;;;;21.58;3.92;;;;;;;-145.67;100.00;66521.78;4995391;28;20037;-69
2022/01/08 00:21:03;;;;;;;15.90;3.70;;;;;;;-145.67;100.00;66521.78;4995648;28;20037;-68
2022/01/08 00:23:31;;;;;;;24.88;4.15;;;;;;;-145.67;100.00;66521.78;4999774;28;22010;-68
2022/01/08 00:25:58;;;;;;;21.17;4.20;;;;;;;-145.67;100.00;66521.78;4999713;28;20063;-68
2022/01/08 00:28:25;;;;;;;32.53;4.03;;;;;;;-145.67;100.00;66521.78;4995765;28;20041;-69
2022/01/08 00:30:51;;;;;;;25.52;3.38;;;;;;;-145.67;100.00;66521.78;5003251;28;20044;-69
2022/01/08 00:33:16;;;;;;;18.17;3.53;;;;;;;-145.67;100.00;66521.78;4994829;28;20029;-69
2022/01/08 00:35:42;;;;;;;20.10;4.10;;;;;;;-145.67;100.00;66521.78;4995835;28;20029;-68
2022/01/08 00:38:08;;;;;;;19.58;3.10;;;;;;;-145.67;100.00;66521.78;4995584;28;20414;-69
2022/01/08 00:40:33;;;;;;;20.02;3.30;;;;;;;-145.67;100.00;66521.78;5004951;28;20041;-68
2022/01/08 00:43:02;;;;;;;24.17;3.15;;;;;;;-145.67;100.00;66521.78;4995484;28;20029;-68
2022/01/08 00:45:27;;;;;;;22.48;3.70;;;;;;;-145.67;100.00;66521.78;4995012;28;20553;-68
2022/01/08 00:47:53;;;;;;;22.45;3.33;;;;;;;-145.67;100.00;66521.78;4995811;28;20500;-68
2022/01/08 00:50:21;;;;;;;19.85;4.10;;;;;;;-145.67;100.00;66521.78;4993944;28;20489;-68
2022/01/08 00:52:47;;;;;;;21.95;3.80;;;;;;;-145.67;100.00;66521.78;4995305;28;20065;-68
2022/01/08 00:55:16;;;;;;;18.00;3.05;;;;;;;-145.67;100.00;66521.78;5004603;28;20040;-68
2022/01/08 00:57:41;;;;;;;30.20;4.35;;;;;;;-145.67;100.00;66521.78;5003322;28;20173;-68
2022/01/08 01:00:11;;;;;;;24.35;3.60;;;;;;;-145.67;100.00;66521.78;5000874;28;20054;-68
2022/01/08 01:02:40;;;;;;;27.77;4.50;;;;;;;-145.67;100.00;66521.78;4995183;28;20077;-68
2022/01/08 01:05:08;;;;;;;17.17;2.83;;;;;;;-145.67;100.00;66521.78;5009266;28;20146;-67
2022/01/08 01:07:34;;;;;;;19.05;2.70;;;;;;;-145.67;100.00;66521.78;4994795;28;20033;-67
2022/01/08 01:10:00;;;;;;;18.17;3.30;;;;;;;-145.67;100.00;66521.78;5009459;28;20033;-67
2022/01/08 01:12:28;;;;;;;21.02;3.45;;;;;;;-145.67;100.00;66521.78;4994393;28;20047;-67
2022/01/08 01:14:53;;;;;;;20.15;2.90;;;;;;;-145.67;100.00;66521.78;4994792;28;20061;-67
2022/01/08 01:17:19;;;;;;;23.55;3.65;;;;;;;-145.67;100.00;66521.78;4994380;28;20490;-68
2022/01/08 01:19:47;;;;;;;22.40;3.28;;;;;;;-145.67;100.00;66521.78;4993965;28;20026;-67
2022/01/08 01:22:16;;;;;;;15.95;2.90;;;;;;;-145.67;100.00;66521.78;4999777;28;20041;-68
2022/01/08 01:24:48;;;;;;;17.60;2.97;;;;;;;-145.67;100.00;66521.78;4997955;28;20471;-67
2022/01/08 01:30:18;;;;;;;24.73;3.08;;;;;;;-145.67;100.00;66521.78;4994262;28;20461;-67
2022/01/08 01:49:18;;;;;;;20.10;3.30;;;;;;;-145.67;100.00;66521.78;4992312;28;20323;-67
2022/01/08 01:51:44;;;;;;;17.75;3.03;;;;;;;-145.67;100.00;66521.78;5001234;28;20033;-67
2022/01/08 01:54:09;;;;;;;12.02;2.30;;;;;;;-145.67;100.00;66521.78;5008743;28;20124;-67
2022/01/08 01:56:38;;;;;;;16.38;3.03;;;;;;;-145.67;100.00;66521.78;4994652;28;20033;-67
2022/01/08 01:59:04;;;;;;;24.02;3.10;;;;;;;-145.67;100.00;66521.78;4994579;28;20029;-67
2022/01/08 02:01:33;;;;;;;31.70;3.58;;;;;;;-145.67;100.00;66521.78;5009298;28;20624;-67
2022/01/08 02:03:58;;;;;;;22.85;2.80;;;;;;;-145.67;100.00;66521.78;5003507;28;20038;-67
2022/01/08 02:06:24;;;;;;;13.38;2.25;;;;;;;-145.67;100.00;66521.78;4993586;28;20273;-66
2022/01/08 02:08:50;;;;;;;16.00;2.45;;;;;;;-145.67;100.00;66521.78;4992434;28;20029;-67
2022/01/08 02:11:18;;;;;;;19.55;2.47;;;;;;;-145.67;100.00;66521.78;4999765;28;20061;-66
2022/01/08 02:13:46;;;;;;;16.15;2.20;;;;;;;-145.67;100.00;66521.78;4994146;28;20038;-67
2022/01/08 02:16:17;;;;;;;26.90;2.83;;;;;;;-145.67;100.00;66521.78;4994119;28;20199;-67
2022/01/08 02:18:51;;;;;;;19.85;2.60;;;;;;;-145.67;100.00;66521.78;4993772;28;20113;-68
2022/01/08 02:21:19;;;;;;;19.98;3.22;;;;;;;-145.67;100.00;66521.78;4993663;28;20669;-67
2022/01/08 02:23:45;;;;;;;20.60;2.63;;;;;;;-145.67;100.00;66521.78;4997557;28;20065;-68
2022/01/08 02:26:11;;;;;;;22.73;2.78;;;;;;;-145.67;100.00;66521.78;4994139;28;20121;-68
2022/01/08 02:28:38;;;;;;;39.75;2.85;;;;;;;-145.67;100.00;66521.78;4993368;28;20042;-68
2022/01/08 02:31:04;;;;;;;18.15;2.75;;;;;;;-145.67;100.00;66521.78;4994291;28;20048;-67
2022/01/08 02:33:30;;;;;;;25.75;3.05;;;;;;;-145.67;100.00;66521.78;5008191;28;20026;-68
2022/01/08 02:35:55;;;;;;;17.90;2.60;;;;;;;-145.67;100.00;66521.78;4994055;28;20550;-67
2022/01/08 02:38:21;;;;;;;25.58;3.72;;;;;;;-145.67;100.00;66521.78;4997696;28;20072;-67
2022/01/08 02:41:01;;;;;;;19.10;3.58;;;;;;;-145.67;100.00;66521.78;5012713;28;20517;-67
2022/01/08 02:43:33;;;;;;;18.02;2.70;;;;;;;-145.67;100.00;66521.78;5007211;28;20133;-67
2022/01/08 02:45:58;;;;;;;22.83;3.40;;;;;;;-145.67;100.00;66521.78;4997837;28;20050;-67
2022/01/08 02:48:24;;;;;;;19.75;3.10;;;;;;;-145.67;100.00;66521.78;4996574;28;20365;-69
2022/01/08 02:50:49;;;;;;;23.02;3.20;;;;;;;-145.67;100.00;66521.78;5001331;28;20124;-69
2022/01/08 02:53:15;;;;;;;17.13;3.47;;;;;;;-145.67;100.00;66521.78;4996930;28;20046;-67
2022/01/08 02:55:41;;;;;;;22.75;3.97;;;;;;;-145.67;100.00;66521.78;4997410;28;20037;-67
2022/01/08 02:58:09;;;;;;;19.95;2.63;;;;;;;-145.67;100.00;66521.78;4997540;28;20042;-67
2022/01/08 03:00:34;;;;;;;27.63;3.13;;;;;;;-145.67;100.00;66521.78;4997945;28;20052;-67
2022/01/08 03:03:00;;;;;;;29.92;3.63;;;;;;;-145.67;100.00;66521.78;5001444;28;20041;-68
2022/01/08 03:05:26;;;;;;;20.17;3.45;;;;;;;-145.67;100.00;66521.78;4996945;28;20034;-67
2022/01/08 03:07:52;;;;;;;23.38;3.10;;;;;;;-145.67;100.00;66521.78;4986728;28;20053;-67
2022/01/08 03:10:18;;;;;;;27.10;3.88;;;;;;;-145.67;100.00;66521.78;5002844;28;20239;-67
2022/01/08 03:12:50;;;;;;;17.40;3.17;;;;;;;-145.67;100.00;66521.78;5003238;28;20034;-66
2022/01/08 03:15:20;;;;;;;25.33;3.35;;;;;;;-145.67;100.00;66521.78;4986146;28;20040;-67
2022/01/08 03:17:48;;;;;;;26.10;4.55;;;;;;;-145.67;100.00;66521.78;4997720;28;20064;-68
2022/01/08 03:20:14;;;;;;;23.83;3.85;;;;;;;-145.67;100.00;66521.78;4996725;28;20102;-67
2022/01/08 03:22:43;;;;;;;22.40;3.15;;;;;;;-145.67;100.00;66521.78;4996519;28;20040;-68
2022/01/08 03:25:09;;;;;;;22.75;3.75;;;;;;;-145.67;100.00;66521.78;4995650;28;20097;-67
2022/01/08 03:27:37;;;;;;;19.73;2.88;;;;;;;-145.67;100.00;66521.78;5006514;28;20285;-68
2022/01/08 03:30:05;;;;;;;16.15;2.97;;;;;;;-145.67;100.00;66521.78;4994522;28;20405;-67
2022/01/08 03:32:30;;;;;;;25.90;3.00;;;;;;;-145.67;100.00;66521.78;4996615;28;20049;-67
2022/01/08 03:35:00;;;;;;;22.80;3.25;;;;;;;-145.67;100.00;66521.78;4995868;28;20032;-68
2022/01/08 03:37:26;;;;;;;23.27;4.15;;;;;;;-145.67;100.00;66521.78;4996974;28;20497;-68
2022/01/08 03:39:54;;;;;;;22.80;3.38;;;;;;;-145.67;100.00;66521.78;4997125;28;22105;-68
2022/01/08 03:42:19;;;;;;;28.17;3.45;;;;;;;-145.67;100.00;66521.78;5011303;28;20511;-68
2022/01/08 03:44:45;;;;;;;18.67;3.45;;;;;;;-145.67;100.00;66521.78;4994778;28;20215;-68
2022/01/08 03:47:23;;;;;;;21.92;3.65;;;;;;;-145.67;100.00;66521.78;4995260;28;20149;-67
2022/01/08 03:49:52;;;;;;;24.67;3.35;;;;;;;-145.67;100.00;66521.78;4995516;28;20050;-69
2022/01/08 03:52:18;;;;;;;20.73;3.58;;;;;;;-145.67;100.00;66521.78;4996170;28;20040;-69
2022/01/08 03:54:44;;;;;;;30.63;3.47;;;;;;;-145.67;100.00;66521.78;4996053;28;20033;-69
2022/01/08 03:57:12;;;;;;;21.35;2.63;;;;;;;-145.67;100.00;66521.78;4996322;28;20037;-67
2022/01/08 03:59:37;;;;;;;18.45;3.22;;;;;;;-145.67;100.00;66521.78;4996015;28;20532;-68
2022/01/08 04:02:04;;;;;;;20.40;2.65;;;;;;;-145.67;100.00;66521.78;4996302;28;20038;-67
2022/01/08 04:04:31;;;;;;;16.13;2.70;;;;;;;-145.67;100.00;66521.78;4995869;28;20083;-67
2022/01/08 04:06:57;;;;;;;14.77;2.42;;;;;;;-145.67;100.00;66521.78;4995025;28;20509;-68
2022/01/08 04:09:25;;;;;;;15.48;3.08;;;;;;;-145.67;100.00;66521.78;4995894;28;20038;-68
2022/01/08 04:11:51;;;;;;;27.83;2.80;;;;;;;-145.67;100.00;66521.78;5000104;28;20120;-68
2022/01/08 04:14:18;;;;;;;15.90;2.80;;;;;;;-145.67;100.00;66521.78;4996412;28;20040;-68
2022/01/08 04:16:47;;;;;;;18.83;2.70;;;;;;;-145.67;100.00;66521.78;4995684;28;20033;-67
2022/01/08 04:19:13;;;;;;;9.73;2.40;;;;;;;-145.67;100.00;66521.78;4993643;28;20440;-68
2022/01/08 04:24:10;;;;;;;14.00;2.20;;;;;;;-145.67;100.00;66521.78;4995963;28;20083;-67
2022/01/08 04:26:36;;;;;;;13.68;2.83;;;;;;;-145.67;100.00;66521.78;5000269;28;20037;-67
2022/01/08 04:29:03;;;;;;;22.08;3.97;;;;;;;-145.67;100.00;66521.78;4995631;28;20037;-68
2022/01/08 04:31:29;;;;;;;18.00;2.60;;;;;;;-145.67;100.00;66521.78;4995450;28;20034;-68
2022/01/08 04:33:54;;;;;;;24.25;3.00;;;;;;;-145.67;100.00;66521.78;4995048;28;20025;-70
2022/01/08 04:36:22;;;;;;;19.20;3.28;;;;;;;-145.67;100.00;66521.78;4995482;28;20033;-67
2022/01/08 04:38:50;;;;;;;22.00;2.65;;;;;;;-145.67;100.00;66521.78;4995517;28;20030;-68
2022/01/08 04:41:15;;;;;;;25.77;3.75;;;;;;;-145.67;100.00;66521.78;4985059;28;20558;-67
2022/01/08 04:43:43;;;;;;;20.73;3.35;;;;;;;-145.67;100.00;66521.78;4994014;28;20029;-69
2022/01/08 04:46:14;;;;;;;21.08;2.97;;;;;;;-145.67;100.00;66521.78;4999572;28;20041;-69
2022/01/08 04:48:40;;;;;;;19.30;2.47;;;;;;;-145.67;100.00;66521.78;4994807;28;20069;-69
2022/01/08 04:51:05;;;;;;;15.43;2.40;;;;;;;-145.67;100.00;66521.78;4995371;28;20966;-69
2022/01/08 04:53:31;;;;;;;22.13;2.95;;;;;;;-145.67;100.00;66521.78;4994604;28;20048;-68
2022/01/08 04:55:56;;;;;;;12.23;2.47;;;;;;;-145.67;100.00;66521.78;4995664;28;20219;-68
2022/01/08 04:58:22;;;;;;;19.73;2.75;;;;;;;-145.67;100.00;66521.78;4995641;28;20046;-69
2022/01/08 05:00:49;;;;;;;16.90;2.28;;;;;;;-145.67;100.00;66521.78;4995736;28;21850;-68
2022/01/08 05:03:15;;;;;;;14.73;2.55;;;;;;;-145.67;100.00;66521.78;4993213;28;20044;-69
2022/01/08 05:05:41;;;;;;;22.80;2.97;;;;;;;-145.67;100.00;66521.78;4995264;28;20148;-69
2022/01/08 05:08:09;;;;;;;14.07;2.80;;;;;;;-145.67;100.00;66521.78;4998683;28;20045;-69
2022/01/08 05:10:35;;;;;;;28.85;3.97;;;;;;;-145.67;100.00;66521.78;4998747;28;20124;-69
2022/01/08 05:13:05;;;;;;;25.27;3.70;;;;;;;-145.67;100.00;66521.78;4994923;28;20033;-70
2022/01/08 05:15:34;;;;;;;18.48;3.30;;;;;;;-145.67;100.00;66521.78;4993062;28;20060;-69
2022/01/08 05:17:59;;;;;;;21.90;3.60;;;;;;;-145.67;100.00;66521.78;5000480;28;20037;-69
2022/01/08 05:20:30;;;;;;;23.58;3.65;;;;;;;-145.67;100.00;66521.78;4999857;28;20473;-69
2022/01/08 05:23:00;;;;;;;17.35;2.70;;;;;;;-145.67;100.00;66521.78;4995154;28;20061;-69
2022/01/08 05:25:26;;;;;;;13.98;2.58;;;;;;;-145.67;100.00;66521.78;4994681;28;20140;-69
2022/01/08 05:27:53;;;;;;;13.77;3.10;;;;;;;-145.67;100.00;66521.78;4995157;28;20026;-69
2022/01/08 05:30:21;;;;;;;16.88;2.85;;;;;;;-145.67;100.00;66521.78;4999445;28;20030;-68
2022/01/08 05:32:46;;;;;;;20.02;2.88;;;;;;;-145.67;100.00;66521.78;4992472;28;20537;-68
2022/01/08 05:35:12;;;;;;;23.80;3.80;;;;;;;-145.67;100.00;66521.78;4998098;28;21977;-68
2022/01/08 05:37:38;;;;;;;21.80;3.60;;;;;;;-145.67;100.00;66521.78;4994475;28;20176;-70
2022/01/08 05:40:10;;;;;;;26.20;4.22;;;;;;;-145.67;100.00;66521.78;4994979;28;20840;-68
2022/01/08 05:42:35;;;;;;;21.52;3.65;;;;;;;-145.67;100.00;66521.78;4994240;28;20072;-70
2022/01/08 05:45:03;;;;;;;18.85;3.42;;;;;;;-145.67;100.00;66521.78;4994511;28;20912;-69
2022/01/08 05:47:31;;;;;;;17.23;2.65;;;;;;;-145.67;100.00;66521.78;4993811;28;20140;-68
2022/01/08 05:49:59;;;;;;;21.33;3.45;;;;;;;-145.67;100.00;66521.78;4993971;28;20034;-69
2022/01/08 05:52:26;;;;;;;27.15;4.13;;;;;;;-145.67;100.00;66521.78;4994064;28;20042;-68
2022/01/08 05:54:51;;;;;;;20.48;3.65;;;;;;;-145.67;100.00;66521.78;4994714;28;20048;-68
2022/01/08 05:57:17;;;;;;;19.98;2.78;;;;;;;-145.67;100.00;66521.78;5009772;28;20973;-68
2022/01/08 05:59:45;;;;;;;30.63;3.53;;;;;;;-145.67;100.00;66521.78;4987473;28;20033;-68
2022/01/08 06:02:11;;;;;;;16.08;2.97;;;;;;;-145.67;100.00;66521.78;4992814;28;20033;-68
2022/01/08 06:04:41;;;;;;;19.45;3.20;;;;;;;-145.67;100.00;66521.78;4993887;28;20052;-69
2022/01/08 06:07:09;;;;;;;13.93;3.28;;;;;;;-145.67;100.00;66521.78;4994101;28;20040;-69
2022/01/08 06:09:34;;;;;;;17.15;2.47;;;;;;;-145.67;100.00;66521.78;4981518;28;20049;-69
2022/01/08 06:12:00;;;;;;;14.52;3.20;;;;;;;-145.67;100.00;66521.78;4995389;28;20034;-70
2022/01/08 06:14:25;;;;;;;20.80;3.13;;;;;;;-145.67;100.00;66521.78;4992216;28;20038;-69
2022/01/08 06:16:51;;;;;;;18.55;3.10;;;;;;;-145.67;100.00;66521.78;4994400;28;20037;-68
2022/01/08 06:19:19;;;;;;;21.77;3.33;;;;;;;-145.67;100.00;66521.78;4993096;28;20033;-68
2022/01/08 06:21:47;;;;;;;18.25;3.55;;;;;;;-145.67;100.00;66521.78;5008194;28;20091;-68
2022/01/08 06:24:12;;;;;;;32.38;3.40;;;;;;;-145.67;100.00;66521.78;4993860;28;20072;-68
2022/01/08 06:26:40;;;;;;;24.58;3.90;;;;;;;-145.67;100.00;66521.78;4982151;28;20037;-68
2022/01/08 06:29:08;;;;;;;17.77;2.80;;;;;;;-145.67;100.00;66521.78;4993612;28;20034;-68
2022/01/08 06:31:35;;;;;;;24.13;4.20;;;;;;;-145.67;100.00;66521.78;4997770;28;20343;-68
2022/01/08 06:34:00;;;;;;;12.52;2.40;;;;;;;-145.67;100.00;66521.78;4992962;28;20064;-68
2022/01/08 06:36:25;;;;;;;14.30;2.47;;;;;;;-145.67;100.00;66521.78;4993786;28;20056;-67
2022/01/08 06:38:52;;;;;;;24.15;3.83;;;;;;;-145.67;100.00;66521.78;4997783;28;20079;-67
2022/01/08 06:41:19;;;;;;;20.27;4.35;;;;;;;-145.67;100.00;66521.78;4993491;28;20156;-68
2022/01/08 06:43:45;;;;;;;15.10;3.90;;;;;;;-145.67;100.00;66521.78;4993851;28;20442;-68
2022/01/08 06:46:11;;;;;;;18.48;3.17;;;;;;;-145.67;100.00;66521.78;4992997;28;20049;-69
2022/01/08 06:48:37;;;;;;;16.15;3.00;;;;;;;-145.67;100.00;66521.78;4992049;28;20378;-68
2022/01/08 06:51:02;;;;;;;22.88;3.92;;;;;;;-145.67;100.00;66521.78;4993666;28;20034;-69
2022/01/08 06:53:28;;;;;;;12.77;3.30;;;;;;;-145.67;100.00;66521.78;4994025;28;20038;-69
2022/01/08 06:55:56;;;;;;;13.77;3.40;;;;;;;-145.67;100.00;66521.78;5009593;28;20041;-69
2022/01/08 06:58:24;;;;;;;24.38;3.67;;;;;;;-145.67;100.00;66521.78;4992230;28;20045;-68
2022/01/08 07:00:50;;;;;;;17.90;2.92;;;;;;;-145.67;100.00;66521.78;5003172;28;20510;-68
2022/01/08 07:03:18;;;;;;;18.42;3.25;;;;;;;-145.67;100.00;66521.78;4993086;28;20076;-70
2022/01/08 07:05:46;;;;;;;11.43;2.25;;;;;;;-145.67;100.00;66521.78;4993739;28;20113;-69
2022/01/08 07:08:11;;;;;;;19.60;2.85;;;;;;;-145.67;100.00;66521.78;4996675;28;20033;-68
2022/01/08 07:10:37;;;;;;;21.52;3.20;;;;;;;-145.67;100.00;66521.78;4993397;28;20038;-69
2022/01/08 07:13:02;;;;;;;20.40;2.70;;;;;;;-145.67;100.00;66521.78;4996465;28;20057;-68
2022/01/08 07:15:28;;;;;;;19.98;2.65;;;;;;;-145.67;100.00;66521.78;4987960;28;20125;-68
2022/01/08 07:17:54;;;;;;;15.13;2.33;;;;;;;-145.67;100.00;66521.78;4993232;28;20029;-70
2022/01/08 07:20:22;;;;;;;21.48;3.03;;;;;;;-145.67;100.00;66521.78;4992754;28;20679;-68
2022/01/08 07:22:50;;;;;;;15.90;2.92;;;;;;;-145.67;100.00;66521.78;4993981;28;20095;-68
2022/01/08 07:25:18;;;;;;;20.58;3.92;;;;;;;-145.67;100.00;66521.78;4996949;28;20095;-68
2022/01/08 07:27:44;;;;;;;18.63;3.22;;;;;;;-145.67;100.00;66521.78;4996751;28;20096;-68
2022/01/08 07:30:10;;;;;;;14.88;2.60;;;;;;;-145.67;100.00;66521.78;4994675;28;20037;-68
2022/01/08 07:32:43;;;;;;;10.82;2.40;;;;;;;-145.67;100.00;66521.78;5002292;28;20068;-68
2022/01/08 07:35:11;;;;;;;11.55;2.33;;;;;;;-145.67;100.00;66521.78;4995868;28;20234;-68
2022/01/08 07:37:37;;;;;;;14.05;2.72;;;;;;;-145.67;100.00;66521.78;4995728;28;20296;-69
2022/01/08 07:40:04;;;;;;;16.35;3.00;;;;;;;-145.67;100.00;66521.78;4999939;28;20107;-68
2022/01/08 07:42:32;;;;;;;28.92;4.00;;;;;;;-145.67;100.00;66521.78;4999974;28;20049;-69
2022/01/08 07:44:58;;;;;;;15.05;2.20;;;;;;;-145.67;100.00;66521.78;4996335;28;20053;-69
2022/01/08 07:47:23;;;;;;;19.63;2.88;;;;;;;-145.67;100.00;66521.78;4996569;28;20084;-67
2022/01/08 07:49:49;;;;;;;7.28;2.10;;;;;;;-145.67;100.00;66521.78;5001745;28;20182;-68
2022/01/08 07:52:14;;;;;;;23.27;3.25;;;;;;;-145.67;100.00;66521.78;5011723;28;20037;-67
2022/01/08 07:54:40;;;;;;;15.93;2.40;;;;;;;-145.67;100.00;66521.78;5002029;28;20210;-69
2022/01/08 07:57:08;;;;;;;23.70;2.92;;;;;;;-145.67;100.00;66521.78;4995925;28;20051;-68
2022/01/08 07:59:34;;;;;;;13.32;2.83;;;;;;;-145.67;100.00;66521.78;4996635;28;20422;-68
2022/01/08 08:02:00;;;;;;;13.88;2.63;;;;;;;-145.67;100.00;66521.78;5011105;28;20044;-68
2022/01/08 08:04:28;;;;;;;22.60;2.63;;;;;;;-145.67;100.00;66521.78;4996100;28;20041;-68
2022/01/08 08:06:54;;;;;;;16.25;2.10;;;;;;;-145.67;100.00;66521.78;5001020;28;20335;-69
2022/01/08 08:09:19;;;;;;;16.45;2.33;;;;;;;-145.67;100.00;66521.78;5000121;28;20038;-68
2022/01/08 08:11:45;;;;;;;23.65;3.28;;;;;;;-145.67;100.00;66521.78;4995674;28;20168;-69
2022/01/08 08:14:13;;;;;;;20.15;2.85;;;;;;;-145.67;100.00;66521.78;4994305;28;20033;-68
2022/01/08 08:16:41;;;;;;;13.93;2.72;;;;;;;-145.67;100.00;66521.78;4995923;28;20060;-67
2022/01/08 08:19:06;;;;;;;15.18;2.65;;;;;;;-145.67;100.00;66521.78;4996124;28;20392;-68
2022/01/08 08:21:32;;;;;;;16.67;2.92;;;;;;;-145.67;100.00;66521.78;4995908;28;20042;-70
2022/01/08 08:23:59;;;;;;;14.50;2.90;;;;;;;-145.67;100.00;66521.78;4995302;28;20025;-69
2022/01/08 08:26:24;;;;;;;22.00;3.47;;;;;;;-145.67;100.00;66521.78;4977319;28;20046;-69
2022/01/08 08:28:52;;;;;;;14.25;2.40;;;;;;;-145.67;100.00;66521.78;4995584;28;20045;-68
2022/01/08 08:31:17;;;;;;;13.70;2.80;;;;;;;-145.67;100.00;66521.78;4996524;28;20038;-68
2022/01/08 08:33:43;;;;;;;17.17;2.50;;;;;;;-145.67;100.00;66521.78;4995061;28;20056;-68
2022/01/08 08:36:10;;;;;;;17.38;2.90;;;;;;;-145.67;100.00;66521.78;5010632;28;20030;-68
2022/01/08 08:38:36;;;;;;;16.70;2.75;;;;;;;-145.67;100.00;66521.78;4995954;28;20045;-69
2022/01/08 08:41:04;;;;;;;17.50;2.90;;;;;;;-145.67;100.00;66521.78;4993677;28;20486;-68
2022/01/08 08:43:32;;;;;;;20.33;2.88;;;;;;;-145.67;100.00;66521.78;4995751;28;20397;-69
2022/01/08 08:45:57;;;;;;;19.85;3.35;;;;;;;-145.67;100.00;66521.78;4995059;28;20061;-69
2022/01/08 08:48:23;;;;;;;13.88;2.88;;;;;;;-145.67;100.00;66521.78;4996268;28;20387;-69
2022/01/08 08:50:49;;;;;;;20.10;2.97;;;;;;;-145.67;100.00;66521.78;4995199;28;20053;-69
2022/01/08 08:53:16;;;;;;;14.68;2.65;;;;;;;-145.67;100.00;66521.78;4995150;28;20135;-69
2022/01/08 08:55:42;;;;;;;13.43;2.40;;;;;;;-145.67;100.00;66521.78;4995059;28;20578;-68
2022/01/08 08:58:07;;;;;;;16.55;3.10;;;;;;;-145.67;100.00;66521.78;4995255;28;20098;-68
2022/01/08 09:00:36;;;;;;;20.83;2.70;;;;;;;-145.67;100.00;66521.78;4995394;28;20406;-69
2022/01/08 09:03:01;;;;;;;14.85;2.30;;;;;;;-145.67;100.00;66521.78;4995780;28;20029;-69
2022/01/08 09:05:27;;;;;;;13.30;2.53;;;;;;;-145.67;100.00;66521.78;4995495;28;20486;-70
2022/01/08 09:07:59;;;;;;;15.32;2.67;;;;;;;-145.67;100.00;66521.78;4994485;28;20038;-68
2022/01/08 09:10:25;;;;;;;13.57;2.10;;;;;;;-145.67;100.00;66521.78;5004262;28;20485;-68
2022/01/08 09:12:52;;;;;;;11.40;1.60;;;;;;;-145.67;100.00;66521.78;4983646;28;20033;-68
2022/01/08 09:15:25;;;;;;;6.60;1.40;;;;;;;-145.67;100.00;66521.78;5009822;28;20413;-70
2022/01/08 09:17:52;;;;;;;9.40;2.85;;;;;;;-145.67;100.00;66521.78;4993443;28;20571;-69
2022/01/08 09:20:18;;;;;;;10.07;4.20;;;;;;;-145.67;100.00;66521.78;4994952;28;20502;-68
2022/01/08 09:22:49;;;;;;;15.32;4.43;;;;;;;-145.67;100.00;66521.78;4992929;28;20025;-70
2022/01/08 09:25:14;;;;;;;23.23;5.10;;;;;;;-145.67;100.00;66521.78;4992926;28;20036;-68
2022/01/08 09:27:42;;;;;;;14.75;6.55;;;;;;;-145.67;100.00;66521.78;4993117;28;20033;-68
2022/01/08 09:30:10;;;;;;;23.23;6.22;;;;;;;-145.67;100.00;66521.78;5000552;28;20663;-68
2022/01/08 09:32:37;;;;;;;12.45;4.22;;;;;;;-145.67;100.00;66521.78;4994818;28;20045;-68
2022/01/08 09:35:06;;;;;;;15.55;6.20;;;;;;;-145.67;100.00;66521.78;4994361;28;20382;-67
2022/01/08 09:37:33;;;;;;;15.30;5.40;;;;;;;-145.67;100.00;66521.78;4994371;28;20864;-68
2022/01/08 09:40:01;;;;;;;21.17;5.97;;;;;;;-145.67;100.00;66521.78;4994130;28;20029;-68
2022/01/08 09:42:29;;;;;;;11.65;3.90;;;;;;;-145.67;100.00;66521.78;5009165;28;20052;-69
2022/01/08 09:44:56;;;;;;;14.82;3.88;;;;;;;-145.67;100.00;66521.78;4994373;28;20545;-69
2022/01/08 09:47:25;;;;;;;20.67;6.15;;;;;;;-145.67;100.00;66521.78;4994220;28;20072;-69
2022/01/08 09:49:50;;;;;;;22.65;7.43;;;;;;;-145.67;100.00;66521.78;4993675;28;20342;-69
2022/01/08 09:52:16;;;;;;;31.58;9.13;;;;;;;-145.67;100.00;66521.78;4992492;28;20022;-68
2022/01/08 09:54:41;;;;;;;21.88;6.68;;;;;;;-145.67;100.00;66521.78;4994163;28;21804;-69
2022/01/08 09:57:07;;;;;;;27.35;8.77;;;;;;;-145.67;100.00;66521.78;4994457;28;20045;-67
2022/01/08 09:59:34;;;;;;;27.67;10.82;;;;;;;-145.67;100.00;66521.78;4994681;28;20026;-69
2022/01/08 10:02:01;;;;;;;27.95;9.70;;;;;;;-145.67;100.00;66521.78;4994765;28;20033;-69
2022/01/08 10:04:29;;;;;;;32.10;14.02;;;;;;;-145.67;100.00;66521.78;5008549;28;20458;-69
2022/01/08 10:07:18;;;;;;;27.58;12.73;;;;;;;-145.67;100.00;66521.78;4993791;28;20500;-69
2022/01/08 10:10:19;;;;;;;26.98;11.02;;;;;;;-145.67;100.00;66521.78;4994075;28;20493;-69
2022/01/08 10:12:45;;;;;;;20.60;9.23;;;;;;;-145.67;100.00;66521.78;5003332;28;20521;-69
2022/01/08 10:18:00;;;;;;;39.13;14.02;;;;;;;-145.67;100.00;66521.78;5006434;28;20033;-69
2022/01/08 10:20:37;;;;;;;37.85;14.48;;;;;;;-145.67;100.00;66521.78;4994126;28;20089;-68
2022/01/08 10:23:20;;;;;;;32.55;15.65;;;;;;;-145.67;100.00;66521.78;4993823;28;20030;-68
2022/01/08 10:26:05;;;;;;;36.25;14.13;;;;;;;-145.67;100.00;66521.78;5003080;28;20036;-70
2022/01/08 10:28:38;;;;;;;38.97;15.00;;;;;;;-145.67;100.00;66521.78;5008575;28;20509;-70
2022/01/08 10:31:21;;;;;;;24.52;12.75;;;;;;;-145.67;100.00;66521.78;5009001;28;20034;-68
2022/01/08 10:34:09;;;;;;;33.45;14.90;;;;;;;-145.67;100.00;66521.78;4993106;28;20030;-68
2022/01/08 10:36:39;;;;;;;39.63;18.38;;;;;;;-145.67;100.00;66521.78;4992480;28;20037;-69
2022/01/08 10:39:07;;;;;;;34.33;19.05;;;;;;;-145.67;100.00;66521.78;4998681;28;20041;-69
2022/01/08 10:41:42;;;;;;;40.38;16.85;;;;;;;-145.67;100.00;66521.78;5004147;28;20038;-70
2022/01/08 10:44:26;;;;;;;37.35;15.75;;;;;;;-145.67;100.00;66521.78;4993864;28;20033;-69
2022/01/08 10:47:05;;;;;;;35.50;17.40;;;;;;;-145.67;100.00;66521.78;5003741;28;20169;-70
2022/01/08 10:49:35;;;;;;;26.60;13.80;;;;;;;-145.67;100.00;66521.78;5007819;28;20133;-69
2022/01/08 10:52:13;;;;;;;22.23;11.15;;;;;;;-145.67;100.00;66521.78;5008073;28;20497;-70
2022/01/08 10:54:40;;;;;;;32.92;12.00;;;;;;;-145.67;100.00;66521.78;5007869;28;20037;-68
2022/01/08 10:57:07;;;;;;;27.20;13.30;;;;;;;-145.67;100.00;66521.78;5008876;28;20056;-69
2022/01/08 10:59:36;;;;;;;36.67;17.02;;;;;;;-145.67;100.00;66521.78;5007212;28;20033;-68
2022/01/08 11:02:05;;;;;;;23.23;12.63;;;;;;;-145.67;100.00;66521.78;4997419;28;20440;-68
2022/01/08 11:04:38;;;;;;;22.45;10.85;;;;;;;-145.67;100.00;66521.78;4996797;28;20048;-69
2022/01/08 11:07:06;;;;;;;26.80;11.60;;;;;;;-145.67;100.00;66521.78;4997069;28;20117;-69
2022/01/08 11:09:31;;;;;;;25.15;11.68;;;;;;;-145.67;100.00;66521.78;5011829;28;20105;-69
2022/01/08 11:11:59;;;;;;;24.75;13.10;;;;;;;-145.67;100.00;66521.78;4987066;28;20567;-69
2022/01/08 11:17:29;;;;;;;20.80;9.23;;;;;;;-145.67;100.00;66521.78;4997290;28;20521;-69
2022/01/08 11:20:00;;;;;;;22.17;10.18;;;;;;;-145.67;100.00;66521.78;5011611;28;20040;-68
2022/01/08 11:22:30;;;;;;;20.67;9.13;;;;;;;-145.67;100.00;66521.78;4997291;28;20087;-68
2022/01/08 11:25:15;;;;;;;18.75;8.73;;;;;;;-145.67;100.00;66521.78;5011637;28;20124;-69
2022/01/08 11:28:08;;;;;;;25.33;10.13;;;;;;;-145.67;100.00;66521.78;4996421;28;20523;-69
2022/01/08 11:30:37;;;;;;;22.02;7.65;;;;;;;-145.67;100.00;66521.78;4996707;28;20429;-69
2022/01/08 11:33:10;;;;;;;23.45;9.52;;;;;;;-145.67;100.00;66521.78;5011223;28;20044;-69